createdAt,value
2019-02-10T00:01:16.007Z,99918.78
2019-02-10T00:03:44.876Z,99926.48
2019-02-10T00:06:13.821Z,99905.42
2019-02-10T00:08:42.640Z,99900.88
2019-02-10T00:11:11.505Z,99902.13
2019-02-10T00:13:40.407Z,99898.53
2019-02-10T00:16:15.304Z,99885.78
2019-02-10T00:18:44.206Z,99884.53
2019-02-10T00:21:13.059Z,99881.95
2019-02-10T00:23:41.946Z,99882.48
2019-02-10T00:26:10.816Z,99883.16
2019-02-10T00:28:39.706Z,99879.98
2019-02-10T00:31:08.588Z,99871.04
2019-02-10T00:33:37.488Z,99869.93
2019-02-10T00:36:06.369Z,99861.52
2019-02-10T00:38:35.288Z,99860.75
2019-02-10T00:41:04.176Z,99846.48
2019-02-10T00:43:33.064Z,99850.98
2019-02-10T00:46:01.962Z,99838.69
2019-02-10T00:48:30.831Z,99839.70
2019-02-10T00:50:59.713Z,99832.08
2019-02-10T00:53:28.612Z,99823.80
2019-02-10T00:55:57.476Z,99817.14
2019-02-10T00:58:26.397Z,99811.44
2019-02-10T01:00:55.246Z,99801.84
2019-02-10T01:03:24.119Z,99796.09
2019-02-10T01:05:53.094Z,99795.34
2019-02-10T01:08:21.980Z,99785.03
2019-02-10T01:10:50.868Z,99785.87
2019-02-10T01:13:19.758Z,99786.44
2019-02-10T01:15:48.642Z,99776.56
2019-02-10T01:18:17.538Z,99786.88
2019-02-10T01:20:46.419Z,99778.21
2019-02-10T01:23:15.335Z,99766.48
2019-02-10T01:25:44.223Z,99755.25
2019-02-10T01:28:13.122Z,99761.28
2019-02-10T01:30:42.059Z,99752.95
2019-02-10T01:33:10.950Z,99747.86
2019-02-10T01:35:39.839Z,99745.43
2019-02-10T01:38:08.707Z,99738.33
2019-02-10T01:40:37.656Z,99726.75
2019-02-10T01:43:06.542Z,99726.75
2019-02-10T01:45:35.477Z,99715.58
2019-02-10T01:48:04.370Z,99701.58
2019-02-10T01:50:33.264Z,99707.20
2019-02-10T01:53:02.104Z,99708.08
2019-02-10T01:55:31.023Z,99707.05
2019-02-10T01:57:59.937Z,99696.68
2019-02-10T02:00:28.829Z,99693.23
2019-02-10T02:02:57.716Z,99674.33
2019-02-10T02:05:26.575Z,99671.78
2019-02-10T02:07:55.476Z,99669.21
2019-02-10T02:10:24.377Z,99664.09
2019-02-10T02:12:53.253Z,99661.12
2019-02-10T02:15:22.149Z,99652.55
2019-02-10T02:17:51.017Z,99639.05
2019-02-10T02:20:19.897Z,99633.13
2019-02-10T02:22:48.797Z,99624.48
2019-02-10T02:25:17.694Z,99599.00
2019-02-10T02:27:46.559Z,99601.00
2019-02-10T02:30:16.064Z,99593.39
2019-02-10T02:32:44.946Z,99585.36
2019-02-10T02:35:13.827Z,99581.26
2019-02-10T02:37:42.718Z,99574.00
2019-02-10T02:40:11.595Z,99556.95
2019-02-10T02:42:40.508Z,99545.83
2019-02-10T02:45:10.831Z,99538.63
2019-02-10T02:47:39.707Z,99533.28
2019-02-10T02:50:10.029Z,99526.17
2019-02-10T02:52:39.100Z,99509.89
2019-02-10T02:55:08.746Z,99497.19
2019-02-10T02:57:37.677Z,99494.55
2019-02-10T03:00:06.937Z,99482.91
2019-02-10T03:02:35.860Z,99475.35
2019-02-10T03:05:04.909Z,99462.52
2019-02-10T03:07:33.808Z,99453.07
2019-02-10T03:10:02.675Z,99442.28
2019-02-10T03:12:31.564Z,99441.75
2019-02-10T03:15:00.440Z,99428.67
2019-02-10T03:17:29.327Z,99421.03
2019-02-10T03:19:58.196Z,99403.81
2019-02-10T03:22:27.090Z,99400.11
2019-02-10T03:24:55.979Z,99396.36
2019-02-10T03:27:24.882Z,99385.38
2019-02-10T03:29:53.757Z,99378.22
2019-02-10T03:32:22.615Z,99366.42
2019-02-10T03:34:51.529Z,99356.64
2019-02-10T03:37:26.806Z,99342.77
2019-02-10T03:39:49.324Z,99334.17
2019-02-10T03:42:18.229Z,99334.33
2019-02-10T03:44:47.108Z,99321.69
2019-02-10T03:47:15.972Z,99312.40
2019-02-10T03:49:44.853Z,99302.19
2019-02-10T03:52:13.724Z,99298.64
2019-02-10T03:54:42.618Z,99289.41
2019-02-10T03:57:11.525Z,99267.98
2019-02-10T03:59:40.415Z,99262.52
2019-02-10T04:02:09.295Z,99253.89
2019-02-10T04:04:38.208Z,99245.07
2019-02-10T04:07:07.121Z,99230.17
2019-02-10T04:09:36.048Z,99212.61
2019-02-10T04:12:04.944Z,99204.02
2019-02-10T04:14:33.822Z,99184.13
2019-02-10T04:17:02.723Z,99176.88
2019-02-10T04:19:31.591Z,99169.95
2019-02-10T04:22:00.453Z,99157.17
2019-02-10T04:24:29.335Z,99148.40
2019-02-10T04:26:58.186Z,99131.98
2019-02-10T04:29:27.045Z,99119.65
2019-02-10T04:31:55.930Z,99103.14
2019-02-10T04:34:24.792Z,99088.50
2019-02-10T04:36:53.696Z,99076.66
2019-02-10T04:39:22.564Z,99071.09
2019-02-10T04:41:51.448Z,99067.70
2019-02-10T04:44:20.332Z,99055.06
2019-02-10T04:46:49.195Z,99041.75
2019-02-10T04:49:18.099Z,99031.27
2019-02-10T04:51:46.967Z,99021.20
2019-02-10T04:54:15.828Z,99002.00
2019-02-10T04:56:44.757Z,98990.56
2019-02-10T04:59:13.748Z,98977.75
2019-02-10T05:01:42.603Z,98951.84
2019-02-10T05:04:11.472Z,98935.84
2019-02-10T05:06:40.350Z,98931.63
2019-02-10T05:09:09.209Z,98927.90
2019-02-10T05:11:38.094Z,98922.34
2019-02-10T05:14:06.981Z,98906.34
2019-02-10T05:16:35.915Z,98908.35
2019-02-10T05:19:04.825Z,98898.44
2019-02-10T05:21:33.706Z,98888.34
2019-02-10T05:24:03.812Z,98872.67
2019-02-10T05:26:31.466Z,98869.16
2019-02-10T05:29:00.341Z,98844.39
2019-02-10T05:31:29.204Z,98838.48
2019-02-10T05:33:58.086Z,98844.22
2019-02-10T05:36:26.965Z,98837.14
2019-02-10T05:38:55.859Z,98828.39
2019-02-10T05:41:24.729Z,98807.67
2019-02-10T05:43:53.623Z,98785.27
2019-02-10T05:46:22.513Z,98763.01
2019-02-10T05:48:51.374Z,98735.55
2019-02-10T05:51:20.282Z,98754.27
2019-02-10T05:53:49.164Z,98749.70
2019-02-10T05:56:18.024Z,98748.55
2019-02-10T05:58:46.911Z,98755.45
2019-02-10T06:01:52.265Z,98714.48
2019-02-10T06:04:21.120Z,98725.80
2019-02-10T06:06:50.008Z,98712.80
2019-02-10T06:09:18.893Z,98702.16
2019-02-10T06:11:47.757Z,98689.52
2019-02-10T06:14:16.654Z,98677.89
2019-02-10T06:16:45.539Z,98675.70
2019-02-10T06:19:14.397Z,98672.34
2019-02-10T06:21:43.362Z,98654.76
2019-02-10T06:24:12.229Z,98654.08
2019-02-10T06:26:41.098Z,98635.00
2019-02-10T06:29:09.983Z,98629.30
2019-02-10T06:31:38.949Z,98616.27
2019-02-10T06:34:07.858Z,98594.54
2019-02-10T06:36:36.731Z,98583.08
2019-02-10T06:39:06.014Z,98586.62
2019-02-10T06:41:34.909Z,98569.89
2019-02-10T06:44:03.794Z,98555.84
2019-02-10T06:46:32.660Z,98553.64
2019-02-10T06:49:01.537Z,98557.17
2019-02-10T06:51:30.422Z,98556.66
2019-02-10T06:53:59.307Z,98558.19
2019-02-10T06:56:28.204Z,98561.27
2019-02-10T06:58:57.084Z,98537.19
2019-02-10T07:01:54.155Z,98540.89
2019-02-10T07:04:28.409Z,98535.91
2019-02-10T07:06:57.268Z,98521.95
2019-02-10T07:09:28.911Z,98517.30
2019-02-10T07:11:57.806Z,98519.31
2019-02-10T07:14:38.292Z,98510.91
2019-02-10T07:17:57.898Z,98507.12
2019-02-10T07:20:42.896Z,98493.75
2019-02-10T07:24:07.988Z,98495.05
2019-02-10T07:26:53.809Z,98489.20
2019-02-10T07:29:56.398Z,98491.51
2019-02-10T07:32:30.135Z,98482.03
2019-02-10T07:35:30.723Z,98457.75
2019-02-10T07:38:56.279Z,98456.48
2019-02-10T07:42:06.663Z,98460.83
2019-02-10T07:44:56.277Z,98452.58
2019-02-10T07:48:15.715Z,98436.57
2019-02-10T07:51:37.162Z,98428.77
2019-02-10T07:54:33.290Z,98433.27
2019-02-10T07:57:46.549Z,98440.11
2019-02-10T08:01:03.130Z,98441.03
2019-02-10T08:03:51.711Z,98436.87
2019-02-10T08:06:41.363Z,98428.88
2019-02-10T08:09:59.017Z,98430.49
2019-02-10T08:12:56.076Z,98421.27
2019-02-10T08:15:56.887Z,98418.71
2019-02-10T08:19:05.342Z,98432.44
2019-02-10T08:21:59.693Z,98425.20
2019-02-10T08:24:52.165Z,98406.92
2019-02-10T08:27:43.053Z,98409.33
2019-02-10T08:31:08.906Z,98409.08
2019-02-10T08:34:08.911Z,98394.22
2019-02-10T08:37:04.213Z,98377.53
2019-02-10T08:39:54.392Z,98383.38
2019-02-10T08:42:32.427Z,98374.50
2019-02-10T08:45:08.658Z,98371.89
2019-02-10T08:48:22.210Z,98369.63
2019-02-10T08:51:33.866Z,98361.97
2019-02-10T08:54:02.809Z,98350.78
2019-02-10T08:56:31.702Z,98344.35
2019-02-10T08:59:00.644Z,98349.89
2019-02-10T09:01:29.519Z,98353.44
2019-02-10T09:03:58.380Z,98345.65
2019-02-10T09:06:27.268Z,98363.73
2019-02-10T09:09:02.437Z,98367.00
2019-02-10T09:11:24.997Z,98337.22
2019-02-10T09:13:53.874Z,98360.56
2019-02-10T09:16:22.726Z,98338.52
2019-02-10T09:18:51.611Z,98345.92
2019-02-10T09:21:20.458Z,98338.33
2019-02-10T09:23:49.318Z,98348.87
2019-02-10T09:26:18.181Z,98360.76
2019-02-10T09:28:47.061Z,98347.84
2019-02-10T09:31:15.946Z,98349.89
2019-02-10T09:33:44.835Z,98361.03
2019-02-10T09:36:13.683Z,98347.00
2019-02-10T09:38:42.566Z,98351.22
2019-02-10T09:41:11.420Z,98344.86
2019-02-10T09:43:40.331Z,98340.61
2019-02-10T09:46:09.200Z,98339.16
2019-02-10T09:48:38.304Z,98350.20
2019-02-10T09:51:07.169Z,98349.84
2019-02-10T09:53:36.258Z,98356.38
2019-02-10T09:56:05.120Z,98349.19
2019-02-10T09:58:33.994Z,98345.97
2019-02-10T10:01:02.879Z,98349.70
2019-02-10T10:03:31.754Z,98355.81
2019-02-10T10:06:00.612Z,98345.00
2019-02-10T10:08:29.481Z,98333.54
2019-02-10T10:10:58.363Z,98337.55
2019-02-10T10:13:27.207Z,98320.16
2019-02-10T10:15:56.127Z,98326.22
2019-02-10T10:18:24.985Z,98342.62
2019-02-10T10:20:53.863Z,98338.95
2019-02-10T10:23:22.735Z,98347.47
2019-02-10T10:25:51.601Z,98347.70
2019-02-10T10:28:20.469Z,98350.22
2019-02-10T10:30:49.368Z,98352.03
2019-02-10T10:33:18.258Z,98356.33
2019-02-10T10:35:47.207Z,98369.52
2019-02-10T10:38:16.044Z,98370.11
2019-02-10T10:40:44.947Z,98369.27
2019-02-10T10:43:13.835Z,98364.11
2019-02-10T10:45:42.702Z,98363.72
2019-02-10T10:48:11.583Z,98361.72
2019-02-10T10:50:40.453Z,98371.10
2019-02-10T10:53:09.297Z,98373.01
2019-02-10T10:55:38.244Z,98358.23
2019-02-10T10:58:07.125Z,98377.06
2019-02-10T11:00:36.067Z,98370.62
2019-02-10T11:03:04.961Z,98375.48
2019-02-10T11:05:33.855Z,98377.30
2019-02-10T11:08:02.723Z,98391.38
2019-02-10T11:10:31.617Z,98401.08
2019-02-10T11:13:00.485Z,98391.70
2019-02-10T11:15:29.347Z,98389.83
2019-02-10T11:17:58.200Z,98380.39
2019-02-10T11:20:27.049Z,98382.95
2019-02-10T11:22:55.920Z,98392.17
2019-02-10T11:25:24.797Z,98379.38
2019-02-10T11:27:53.651Z,98387.83
2019-02-10T11:30:22.513Z,98379.84
2019-02-10T11:32:51.384Z,98382.25
2019-02-10T11:35:20.291Z,98374.09
2019-02-10T11:37:49.157Z,98370.98
2019-02-10T11:40:18.003Z,98379.95
2019-02-10T11:42:46.880Z,98373.45
2019-02-10T11:45:15.752Z,98393.31
2019-02-10T11:47:44.629Z,98398.53
2019-02-10T11:50:13.590Z,98388.57
2019-02-10T11:52:42.450Z,98381.30
2019-02-10T11:55:11.362Z,98388.25
2019-02-10T11:57:40.349Z,98383.17
2019-02-10T12:00:10.323Z,98403.02
2019-02-10T12:02:39.329Z,98412.24
2019-02-10T12:05:09.514Z,98407.55
2019-02-10T12:07:38.554Z,98398.61
2019-02-10T12:10:07.960Z,98412.51
2019-02-10T12:12:37.143Z,98399.74
2019-02-10T12:15:06.416Z,98405.36
2019-02-10T12:17:35.325Z,98404.05
2019-02-10T12:20:04.615Z,98406.48
2019-02-10T12:22:33.526Z,98417.21
2019-02-10T12:25:02.372Z,98420.54
2019-02-10T12:27:31.221Z,98413.06
2019-02-10T12:30:00.735Z,98411.09
2019-02-10T12:32:28.958Z,98420.17
2019-02-10T12:34:57.879Z,98418.77
2019-02-10T12:37:32.339Z,98417.21
2019-02-10T12:39:59.903Z,98418.86
2019-02-10T12:42:24.448Z,98424.36
2019-02-10T12:44:53.330Z,98425.63
2019-02-10T12:47:22.197Z,98427.61
2019-02-10T12:49:51.047Z,98425.27
2019-02-10T12:52:19.941Z,98427.65
2019-02-10T12:54:48.816Z,98429.55
2019-02-10T12:57:17.696Z,98435.79
2019-02-10T12:59:46.584Z,98436.66
2019-02-10T13:02:15.441Z,98434.45
2019-02-10T13:04:44.308Z,98446.61
2019-02-10T13:07:13.152Z,98438.89
2019-02-10T13:09:42.024Z,98439.72
2019-02-10T13:12:10.876Z,98436.48
2019-02-10T13:14:39.890Z,98437.80
2019-02-10T13:17:08.748Z,98431.27
2019-02-10T13:19:37.689Z,98440.03
2019-02-10T13:22:06.518Z,98443.34
2019-02-10T13:24:35.435Z,98446.59
2019-02-10T13:27:04.284Z,98452.95
2019-02-10T13:29:33.174Z,98456.81
2019-02-10T13:32:02.042Z,98450.80
2019-02-10T13:34:30.933Z,98450.03
2019-02-10T13:36:59.870Z,98447.36
2019-02-10T13:39:28.672Z,98452.10
2019-02-10T13:41:56.508Z,98448.42
2019-02-10T13:44:25.388Z,98456.04
2019-02-10T13:46:54.246Z,98456.78
2019-02-10T13:49:23.113Z,98464.19
2019-02-10T13:51:51.967Z,98462.12
2019-02-10T13:54:20.856Z,98464.04
2019-02-10T13:56:49.747Z,98457.66
2019-02-10T13:59:18.654Z,98459.27
2019-02-10T14:01:47.548Z,98469.98
2019-02-10T14:04:16.432Z,98464.81
2019-02-10T14:06:45.325Z,98472.62
2019-02-10T14:09:14.189Z,98465.88
2019-02-10T14:11:43.070Z,98476.70
2019-02-10T14:14:11.988Z,98480.41
2019-02-10T14:16:40.951Z,98488.62
2019-02-10T14:19:09.875Z,98482.22
2019-02-10T14:21:39.044Z,98485.00
2019-02-10T14:24:08.555Z,98482.61
2019-02-10T14:26:38.324Z,98482.27
2019-02-10T14:29:22.321Z,98477.47
2019-02-10T14:31:52.317Z,98484.77
2019-02-10T14:34:46.781Z,98493.82
2019-02-10T14:37:24.035Z,98489.49
2019-02-10T14:39:58.741Z,98487.27
2019-02-10T14:42:27.806Z,98490.34
2019-02-10T14:45:02.472Z,98497.47
2019-02-10T14:47:49.437Z,98499.75
2019-02-10T14:50:19.350Z,98508.91
2019-02-10T14:52:46.428Z,98506.27
2019-02-10T14:55:21.965Z,98508.06
2019-02-10T14:57:56.102Z,98513.13
2019-02-10T15:00:43.609Z,98511.77
2019-02-10T15:03:38.094Z,98517.88
2019-02-10T15:06:17.179Z,98515.86
2019-02-10T15:08:48.049Z,98521.65
2019-02-10T15:11:21.385Z,98516.94
2019-02-10T15:13:50.405Z,98528.45
2019-02-10T15:16:28.185Z,98522.42
2019-02-10T15:18:59.867Z,98532.58
2019-02-10T15:21:28.934Z,98533.31
2019-02-10T15:24:00.865Z,98533.72
2019-02-10T15:26:29.910Z,98538.15
2019-02-10T15:29:18.397Z,98540.55
2019-02-10T15:31:52.362Z,98547.39
2019-02-10T15:34:23.332Z,98550.80
2019-02-10T15:37:02.281Z,98551.52
2019-02-10T15:39:34.314Z,98558.95
2019-02-10T15:42:09.275Z,98563.85
2019-02-10T15:44:32.359Z,98572.17
2019-02-10T15:47:01.360Z,98576.08
2019-02-10T15:49:30.377Z,98576.08
2019-02-10T15:51:59.405Z,98592.47
2019-02-10T15:54:28.488Z,98586.61
2019-02-10T15:57:05.378Z,98588.98
2019-02-10T15:59:38.922Z,98598.13
2019-02-10T16:02:13.086Z,98611.39
2019-02-10T16:04:42.888Z,98607.91
2019-02-10T16:07:14.383Z,98621.87
2019-02-10T16:09:45.638Z,98623.80
2019-02-10T16:12:16.272Z,98627.73
2019-02-10T16:14:51.560Z,98633.16
2019-02-10T16:17:20.644Z,98638.53
2019-02-10T16:20:09.413Z,98646.99
2019-02-10T16:22:38.567Z,98652.22
2019-02-10T16:25:13.057Z,98658.43
2019-02-10T16:27:45.038Z,98661.95
2019-02-10T16:30:16.486Z,98663.28
2019-02-10T16:32:50.053Z,98663.97
2019-02-10T16:35:32.257Z,98668.00
2019-02-10T16:38:07.068Z,98673.05
2019-02-10T16:40:40.867Z,98682.63
2019-02-10T16:43:07.552Z,98695.73
2019-02-10T16:45:36.430Z,98696.39
2019-02-10T16:48:05.318Z,98699.81
2019-02-10T16:50:34.173Z,98713.70
2019-02-10T16:53:03.057Z,98716.06
2019-02-10T16:55:31.938Z,98728.16
2019-02-10T16:58:00.846Z,98722.78
2019-02-10T17:00:29.711Z,98732.69
2019-02-10T17:02:58.599Z,98743.13
2019-02-10T17:05:27.479Z,98742.98
2019-02-10T17:07:56.373Z,98753.39
2019-02-10T17:10:25.249Z,98747.67
2019-02-10T17:12:54.117Z,98752.70
2019-02-10T17:15:22.985Z,98760.17
2019-02-10T17:17:51.841Z,98772.08
2019-02-10T17:20:20.698Z,98770.16
2019-02-10T17:22:49.588Z,98777.75
2019-02-10T17:25:18.487Z,98783.31
2019-02-10T17:27:47.381Z,98789.70
2019-02-10T17:30:16.270Z,98799.24
2019-02-10T17:32:45.151Z,98803.47
2019-02-10T17:35:14.056Z,98805.80
2019-02-10T17:37:42.916Z,98812.19
2019-02-10T17:40:15.740Z,98815.01
2019-02-10T17:42:44.598Z,98830.30
2019-02-10T17:45:13.463Z,98830.38
2019-02-10T17:47:42.376Z,98840.05
2019-02-10T17:50:11.688Z,98838.67
2019-02-10T17:52:40.582Z,98845.36
2019-02-10T17:55:09.490Z,98858.34
2019-02-10T17:57:38.403Z,98857.50
2019-02-10T18:00:07.864Z,98865.63
2019-02-10T18:02:36.764Z,98877.92
2019-02-10T18:05:06.263Z,98880.73
2019-02-10T18:07:35.133Z,98886.03
2019-02-10T18:10:04.072Z,98890.56
2019-02-10T18:12:32.879Z,98903.50
2019-02-10T18:15:26.689Z,98903.66
2019-02-10T18:18:09.394Z,98911.41
2019-02-10T18:20:50.372Z,98918.75
2019-02-10T18:23:38.379Z,98926.36
2019-02-10T18:26:26.765Z,98931.53
2019-02-10T18:29:05.599Z,98948.70
2019-02-10T18:31:53.574Z,98959.20
2019-02-10T18:34:37.771Z,98959.22
2019-02-10T18:37:25.746Z,98966.44
2019-02-10T18:40:11.426Z,98976.83
2019-02-10T18:43:02.403Z,98981.41
2019-02-10T18:45:58.990Z,98982.61
2019-02-10T18:48:45.623Z,98993.72
2019-02-10T18:51:41.785Z,98995.16
2019-02-10T18:54:38.679Z,99011.14
2019-02-10T18:57:26.675Z,99017.76
2019-02-10T19:00:13.615Z,99024.42
2019-02-10T19:03:04.537Z,99040.20
2019-02-10T19:05:42.596Z,99042.89
2019-02-10T19:08:33.797Z,99054.00
2019-02-10T19:11:24.370Z,99059.88
2019-02-10T19:14:09.363Z,99078.18
2019-02-10T19:16:56.033Z,99093.19
2019-02-10T19:19:44.101Z,99101.45
2019-02-10T19:22:37.650Z,99119.59
2019-02-10T19:25:31.783Z,99128.84
2019-02-10T19:28:22.558Z,99154.37
2019-02-10T19:31:05.493Z,99156.07
2019-02-10T19:33:53.465Z,99177.47
2019-02-10T19:36:40.431Z,99184.66
2019-02-10T19:39:18.330Z,99192.16
2019-02-10T19:41:56.248Z,99210.95
2019-02-10T19:44:47.312Z,99226.02
2019-02-10T19:47:35.981Z,99227.97
2019-02-10T19:50:14.718Z,99249.16
2019-02-10T19:53:11.939Z,99260.58
2019-02-10T19:55:48.490Z,99269.95
2019-02-10T19:58:46.450Z,99272.94
2019-02-10T20:01:32.934Z,99286.97
2019-02-10T20:04:35.991Z,99291.82
2019-02-10T20:07:26.524Z,99293.81
2019-02-10T20:10:04.853Z,99306.39
2019-02-10T20:12:45.195Z,99315.31
2019-02-10T20:15:36.005Z,99332.14
2019-02-10T20:18:17.082Z,99346.91
2019-02-10T20:20:53.658Z,99361.45
2019-02-10T20:23:47.575Z,99362.53
2019-02-10T20:26:35.078Z,99380.39
2019-02-10T20:29:21.702Z,99388.23
2019-02-10T20:32:08.456Z,99399.33
2019-02-10T20:34:47.823Z,99404.97
2019-02-10T20:37:26.288Z,99421.61
2019-02-10T20:40:01.254Z,99426.19
2019-02-10T20:42:52.064Z,99428.10
2019-02-10T20:45:35.912Z,99448.88
2019-02-10T20:48:13.914Z,99466.11
2019-02-10T20:50:59.168Z,99473.81
2019-02-10T20:53:47.167Z,99492.13
2019-02-10T20:56:43.662Z,99501.47
2019-02-10T20:59:43.652Z,99507.58
2019-02-10T21:02:37.651Z,99517.02
2019-02-10T21:05:26.771Z,99517.51
2019-02-10T21:08:10.889Z,99531.91
2019-02-10T21:11:04.685Z,99533.73
2019-02-10T21:13:44.918Z,99550.57
2019-02-10T21:16:48.182Z,99562.37
2019-02-10T21:19:36.180Z,99571.44
2019-02-10T21:22:11.363Z,99589.65
2019-02-10T21:25:05.032Z,99596.23
2019-02-10T21:27:41.087Z,99616.43
2019-02-10T21:30:38.404Z,99620.39
2019-02-10T21:33:38.768Z,99634.68
2019-02-10T21:36:25.216Z,99645.00
2019-02-10T21:39:10.785Z,99649.72
2019-02-10T21:41:51.970Z,99655.58
2019-02-10T21:44:39.982Z,99659.41
2019-02-10T21:47:30.910Z,99679.46
2019-02-10T21:49:59.780Z,99688.18
2019-02-10T21:52:28.670Z,99701.97
2019-02-10T21:54:57.561Z,99706.36
2019-02-10T21:57:26.504Z,99716.92
2019-02-10T21:59:55.430Z,99724.62
2019-02-10T22:02:24.344Z,99736.09
2019-02-10T22:04:53.246Z,99740.97
2019-02-10T22:07:22.154Z,99744.51
2019-02-10T22:09:51.117Z,99746.17
2019-02-10T22:12:19.964Z,99752.89
2019-02-10T22:14:48.820Z,99755.34
2019-02-10T22:17:17.719Z,99767.38
2019-02-10T22:19:46.624Z,99757.41
2019-02-10T22:22:15.586Z,99768.84
2019-02-10T22:24:44.435Z,99772.39
2019-02-10T22:27:13.339Z,99772.67
2019-02-10T22:29:42.201Z,99783.98
2019-02-10T22:32:11.085Z,99785.38
2019-02-10T22:34:39.950Z,99795.77
2019-02-10T22:37:08.863Z,99802.53
2019-02-10T22:39:37.764Z,99813.72
2019-02-10T22:42:06.724Z,99808.77
2019-02-10T22:44:35.668Z,99822.92
2019-02-10T22:47:04.600Z,99826.66
2019-02-10T22:49:33.407Z,99831.42
2019-02-10T22:52:02.283Z,99833.85
2019-02-10T22:54:31.204Z,99843.75
2019-02-10T22:57:00.070Z,99853.52
2019-02-10T22:59:28.949Z,99851.30
2019-02-10T23:01:57.829Z,99864.37
2019-02-10T23:04:26.675Z,99868.41
2019-02-10T23:06:55.552Z,99882.08
2019-02-10T23:09:24.496Z,99889.27
2019-02-10T23:11:53.392Z,99891.72
2019-02-10T23:14:22.271Z,99896.69
2019-02-10T23:16:51.120Z,99909.45
2019-02-10T23:19:20.053Z,99907.13
2019-02-10T23:21:48.925Z,99918.60
2019-02-10T23:24:17.783Z,99916.45
2019-02-10T23:26:46.633Z,99930.65
2019-02-10T23:29:15.524Z,99940.78
2019-02-10T23:31:44.390Z,99944.73
2019-02-10T23:34:13.265Z,99956.66
2019-02-10T23:36:42.122Z,99966.58
2019-02-10T23:39:11.111Z,99966.94
2019-02-10T23:41:39.962Z,99969.69
2019-02-10T23:44:08.826Z,99981.70
2019-02-10T23:46:37.727Z,99985.63
2019-02-10T23:49:06.611Z,99999.25
2019-02-10T23:51:35.505Z,99999.62
2019-02-10T23:54:04.410Z,100008.30
2019-02-10T23:56:33.343Z,100011.37
2019-02-10T23:59:02.158Z,100021.79
